Time;durP1;ratioP1;P1;durP2;ratioP2;P2;SDS_P1;SDS_P2;PMS_P1;PMS_P2;Temp;Humidity;BMP_temperature;BMP_pressure;BME280_temperature;BME280_humidity;BME280_pressure;Samples;Min_cycle;Max_cycle;Signal;HPM_P1;HPM_P2
2023/06/01 00:02:01;;;;;;;4.97;2.70;;;;;;;;;;6121367;23;20017;-92
2023/06/01 00:04:26;;;;;;;3.85;2.63;;;;;;;;;;6121643;23;20049;-91
2023/06/01 00:06:53;;;;;;;7.47;3.33;;;;;;;;;;6121354;23;20021;-90
2023/06/01 00:09:19;;;;;;;6.50;3.08;;;;;;;;;;6121189;23;20022;-88
2023/06/01 00:11:45;;;;;;;5.13;2.75;;;;;;;;;;6120591;23;20040;-91
2023/06/01 00:14:11;;;;;;;6.38;2.85;;;;;;;;;;6122751;23;20016;-90
2023/06/01 00:16:37;;;;;;;4.68;2.53;;;;;;;;;;6123258;23;20057;-88
2023/06/01 00:19:03;;;;;;;13.15;3.20;;;;;;;;;;6124859;23;20074;-88
2023/06/01 00:21:31;;;;;;;5.45;2.63;;;;;;;;;;6127183;23;20025;-90
2023/06/01 00:23:57;;;;;;;8.48;2.55;;;;;;;;;;6128134;23;20022;-87
2023/06/01 00:26:23;;;;;;;6.75;2.47;;;;;;;;;;6125565;23;20014;-94
2023/06/01 00:28:50;;;;;;;5.50;2.55;;;;;;;;;;6126197;23;20014;-89
2023/06/01 00:31:16;;;;;;;6.20;2.40;;;;;;;;;;6124347;23;20327;-89
2023/06/01 00:33:42;;;;;;;7.35;2.60;;;;;;;;;;6125681;23;20021;-90
2023/06/01 00:36:08;;;;;;;11.85;2.97;;;;;;;;;;6128012;23;20347;-90
2023/06/01 00:38:34;;;;;;;5.28;2.70;;;;;;;;;;6125108;23;20022;-90
2023/06/01 00:41:00;;;;;;;7.50;2.63;;;;;;;;;;6123266;23;20010;-89
2023/06/01 00:43:26;;;;;;;6.35;2.35;;;;;;;;;;6120370;23;20041;-91
2023/06/01 00:45:53;;;;;;;5.38;2.65;;;;;;;;;;6122006;23;20406;-90
2023/06/01 00:48:20;;;;;;;6.68;2.58;;;;;;;;;;6122886;23;20017;-88
2023/06/01 00:50:47;;;;;;;5.03;2.47;;;;;;;;;;6125493;23;20014;-91
2023/06/01 00:53:18;;;;;;;6.05;2.92;;;;;;;;;;6124646;23;20014;-89
2023/06/01 00:55:44;;;;;;;4.70;2.53;;;;;;;;;;6097770;23;20481;-95
2023/06/01 00:58:12;;;;;;;5.45;2.50;;;;;;;;;;6123969;23;20010;-92
2023/06/01 01:00:38;;;;;;;6.28;3.28;;;;;;;;;;6093428;23;20265;-88
2023/06/01 01:03:08;;;;;;;6.20;3.00;;;;;;;;;;6123954;23;20097;-92
2023/06/01 01:05:35;;;;;;;8.35;3.80;;;;;;;;;;6123205;23;20014;-87
2023/06/01 01:08:14;;;;;;;6.78;2.92;;;;;;;;;;6124074;23;20018;-93
2023/06/01 01:11:00;;;;;;;7.60;3.00;;;;;;;;;;6125121;23;20041;-92
2023/06/01 01:13:29;;;;;;;6.13;2.75;;;;;;;;;;6124788;23;20095;-89
2023/06/01 01:15:59;;;;;;;6.18;2.92;;;;;;;;;;6124457;23;20016;-91
2023/06/01 01:18:37;;;;;;;5.22;2.92;;;;;;;;;;6122838;23;20014;-92
2023/06/01 01:21:21;;;;;;;8.10;3.70;;;;;;;;;;6123886;23;20045;-88
2023/06/01 01:23:59;;;;;;;5.68;2.67;;;;;;;;;;6121637;23;20375;-90
2023/06/01 01:26:37;;;;;;;4.25;2.53;;;;;;;;;;6122099;23;20017;-90
2023/06/01 01:29:09;;;;;;;6.82;2.72;;;;;;;;;;6123334;23;20014;-89
2023/06/01 01:31:35;;;;;;;8.93;3.17;;;;;;;;;;6122240;23;20025;-90
2023/06/01 01:34:02;;;;;;;7.18;3.08;;;;;;;;;;6121656;23;20010;-95
2023/06/01 01:36:29;;;;;;;9.73;3.97;;;;;;;;;;6122196;23;20145;-91
2023/06/01 01:38:55;;;;;;;8.82;3.00;;;;;;;;;;6097216;23;20329;-90
2023/06/01 01:41:25;;;;;;;8.35;4.18;;;;;;;;;;6121651;23;20343;-91
2023/06/01 01:43:52;;;;;;;7.65;3.10;;;;;;;;;;6122193;23;20041;-91
2023/06/01 01:46:18;;;;;;;6.47;2.83;;;;;;;;;;6097216;23;20025;-91
2023/06/01 01:49:10;;;;;;;6.32;2.90;;;;;;;;;;6121531;23;20359;-89
2023/06/01 01:51:46;;;;;;;5.57;2.97;;;;;;;;;;6122373;23;20014;-89
2023/06/01 01:54:13;;;;;;;5.22;2.92;;;;;;;;;;6121662;23;20350;-87
2023/06/01 01:56:39;;;;;;;3.63;2.08;;;;;;;;;;6121062;23;20018;-92
2023/06/01 01:59:05;;;;;;;5.15;2.88;;;;;;;;;;6122037;23;20044;-89
2023/06/01 02:01:32;;;;;;;7.95;2.15;;;;;;;;;;6120593;23;20018;-91
2023/06/01 02:04:02;;;;;;;5.25;2.45;;;;;;;;;;6123152;23;20018;-87
2023/06/01 02:06:28;;;;;;;5.57;2.72;;;;;;;;;;6120226;23;20025;-87
2023/06/01 02:08:54;;;;;;;6.65;2.63;;;;;;;;;;6122830;23;20441;-89
2023/06/01 02:11:20;;;;;;;7.55;2.65;;;;;;;;;;6121394;23;20014;-87
2023/06/01 02:13:47;;;;;;;7.10;2.83;;;;;;;;;;6120321;23;20343;-89
2023/06/01 02:16:13;;;;;;;5.72;3.67;;;;;;;;;;6121255;23;20457;-92
2023/06/01 02:18:41;;;;;;;8.23;3.30;;;;;;;;;;6122235;23;20141;-90
2023/06/01 02:21:08;;;;;;;4.90;2.90;;;;;;;;;;6122903;23;20010;-90
2023/06/01 02:23:35;;;;;;;8.05;2.35;;;;;;;;;;6119985;23;20021;-89
2023/06/01 02:26:01;;;;;;;6.53;3.05;;;;;;;;;;6121767;23;20013;-95
2023/06/01 02:28:27;;;;;;;5.05;2.85;;;;;;;;;;6120834;23;20065;-89
2023/06/01 02:30:53;;;;;;;4.63;2.83;;;;;;;;;;6121553;23;20064;-89
2023/06/01 02:33:19;;;;;;;7.80;2.65;;;;;;;;;;6121126;23;20081;-87
2023/06/01 02:35:45;;;;;;;5.78;2.63;;;;;;;;;;6122330;23;20014;-89
2023/06/01 02:38:11;;;;;;;5.28;2.60;;;;;;;;;;6097232;23;20334;-88
2023/06/01 02:40:37;;;;;;;7.60;2.78;;;;;;;;;;6123054;23;20018;-92
2023/06/01 02:43:03;;;;;;;5.93;3.17;;;;;;;;;;6120858;23;20024;-88
2023/06/01 02:45:29;;;;;;;5.82;2.80;;;;;;;;;;6120003;23;20526;-90
2023/06/01 02:47:55;;;;;;;5.75;2.85;;;;;;;;;;6097288;23;20088;-89
2023/06/01 02:50:21;;;;;;;8.07;3.15;;;;;;;;;;6120183;23;20062;-87
2023/06/01 02:52:47;;;;;;;5.13;2.63;;;;;;;;;;6121280;23;20057;-87
2023/06/01 02:55:13;;;;;;;6.95;3.05;;;;;;;;;;6096654;23;20097;-86
2023/06/01 02:57:39;;;;;;;6.07;3.25;;;;;;;;;;6121870;23;20022;-89
2023/06/01 03:00:15;;;;;;;4.70;2.65;;;;;;;;;;6121422;23;20025;-90
2023/06/01 03:02:41;;;;;;;5.80;3.10;;;;;;;;;;6121632;23;20018;-88
2023/06/01 03:05:07;;;;;;;6.80;2.92;;;;;;;;;;6120453;23;20343;-90
2023/06/01 03:07:33;;;;;;;7.93;3.13;;;;;;;;;;6119446;23;20022;-92
2023/06/01 03:09:59;;;;;;;8.15;3.13;;;;;;;;;;6123093;23;20382;-86
2023/06/01 03:12:25;;;;;;;7.18;3.83;;;;;;;;;;6122291;23;20014;-90
2023/06/01 03:14:51;;;;;;;7.80;3.33;;;;;;;;;;6122307;23;20041;-88
2023/06/01 03:17:17;;;;;;;11.35;3.53;;;;;;;;;;6120742;23;20025;-89
2023/06/01 03:19:44;;;;;;;5.40;2.95;;;;;;;;;;6120058;23;20057;-89
2023/06/01 03:22:10;;;;;;;5.93;2.20;;;;;;;;;;6120926;23;20025;-87
2023/06/01 03:24:36;;;;;;;5.70;3.15;;;;;;;;;;6119839;23;20068;-88
2023/06/01 03:27:04;;;;;;;5.43;3.15;;;;;;;;;;6120855;23;20392;-88
2023/06/01 03:29:30;;;;;;;7.05;3.40;;;;;;;;;;6121116;23;20022;-87
2023/06/01 03:31:56;;;;;;;5.85;3.17;;;;;;;;;;6121316;23;20022;-89
2023/06/01 03:34:22;;;;;;;5.82;3.08;;;;;;;;;;6119922;23;20025;-89
2023/06/01 03:36:48;;;;;;;8.38;3.70;;;;;;;;;;6122758;23;20021;-89
2023/06/01 03:39:17;;;;;;;4.03;2.63;;;;;;;;;;6120769;23;20060;-89
2023/06/01 03:41:44;;;;;;;5.63;3.20;;;;;;;;;;6122735;23;20049;-92
2023/06/01 03:44:11;;;;;;;6.72;2.70;;;;;;;;;;6127082;23;20020;-89
2023/06/01 03:46:37;;;;;;;5.32;2.40;;;;;;;;;;6127103;23;20032;-88
2023/06/01 03:49:04;;;;;;;5.97;2.83;;;;;;;;;;6126874;23;20049;-93
2023/06/01 03:51:30;;;;;;;6.88;2.67;;;;;;;;;;6123974;23;20021;-87
2023/06/01 03:53:56;;;;;;;4.57;2.47;;;;;;;;;;6122819;23;20049;-88
2023/06/01 03:56:23;;;;;;;3.60;2.20;;;;;;;;;;6123330;23;20025;-90
2023/06/01 03:58:49;;;;;;;7.30;2.50;;;;;;;;;;6129128;23;20095;-89
2023/06/01 04:01:16;;;;;;;4.05;2.15;;;;;;;;;;6128127;23;20025;-89
2023/06/01 04:03:45;;;;;;;3.85;2.03;;;;;;;;;;6141269;23;20022;-90
2023/06/01 04:06:13;;;;;;;5.60;2.42;;;;;;;;;;6125910;23;20041;-93
2023/06/01 04:08:47;;;;;;;6.30;2.20;;;;;;;;;;6122207;23;20021;-89
2023/06/01 04:11:13;;;;;;;5.28;2.22;;;;;;;;;;6121952;23;20056;-91
2023/06/01 04:13:39;;;;;;;4.38;2.03;;;;;;;;;;6120622;23;20024;-94
2023/06/01 04:16:06;;;;;;;2.75;1.88;;;;;;;;;;6096062;23;20010;-88
2023/06/01 04:18:32;;;;;;;4.15;2.15;;;;;;;;;;6093963;23;20025;-90
2023/06/01 04:20:58;;;;;;;5.65;2.50;;;;;;;;;;6120256;23;20010;-90
2023/06/01 04:23:24;;;;;;;3.92;2.38;;;;;;;;;;6119658;23;20387;-92
2023/06/01 04:25:53;;;;;;;6.25;1.90;;;;;;;;;;6119657;23;20024;-89
2023/06/01 04:28:20;;;;;;;3.50;2.08;;;;;;;;;;6120337;23;20025;-89
2023/06/01 04:30:51;;;;;;;4.72;1.92;;;;;;;;;;6121599;23;20331;-88
2023/06/01 04:33:17;;;;;;;4.43;2.05;;;;;;;;;;6121147;23;20014;-89
2023/06/01 04:35:43;;;;;;;5.00;2.15;;;;;;;;;;6118787;23;20022;-89
2023/06/01 04:38:09;;;;;;;3.47;2.03;;;;;;;;;;6120265;23;20018;-89
2023/06/01 04:40:36;;;;;;;7.32;2.45;;;;;;;;;;6121522;23;20018;-93
2023/06/01 04:43:02;;;;;;;5.30;2.13;;;;;;;;;;6122024;23;20590;-88
2023/06/01 04:45:33;;;;;;;8.70;3.17;;;;;;;;;;6118779;23;20087;-87
2023/06/01 04:47:59;;;;;;;5.78;2.15;;;;;;;;;;6122250;23;20027;-88
2023/06/01 04:50:28;;;;;;;5.53;2.53;;;;;;;;;;6118962;23;20093;-87
2023/06/01 04:52:55;;;;;;;3.63;2.30;;;;;;;;;;6121809;23;20058;-90
2023/06/01 04:55:21;;;;;;;3.47;2.30;;;;;;;;;;6119641;23;20022;-86
2023/06/01 04:57:47;;;;;;;3.50;1.70;;;;;;;;;;6122412;23;20010;-86
2023/06/01 05:00:17;;;;;;;4.40;2.40;;;;;;;;;;6119402;23;20554;-86
2023/06/01 05:02:44;;;;;;;3.00;2.08;;;;;;;;;;6121021;23;20021;-86
2023/06/01 05:05:11;;;;;;;6.00;2.80;;;;;;;;;;6122253;23;20150;-90
2023/06/01 05:07:38;;;;;;;5.45;2.97;;;;;;;;;;6119072;23;20013;-87
2023/06/01 05:10:06;;;;;;;4.68;2.35;;;;;;;;;;6120352;23;20045;-89
2023/06/01 05:12:34;;;;;;;4.65;2.92;;;;;;;;;;6120425;23;20384;-88
2023/06/01 05:15:01;;;;;;;8.43;3.10;;;;;;;;;;6119964;23;20013;-92
2023/06/01 05:17:27;;;;;;;5.45;2.55;;;;;;;;;;6120493;23;20090;-88
2023/06/01 05:19:53;;;;;;;3.45;2.15;;;;;;;;;;6119938;23;20021;-89
2023/06/01 05:22:19;;;;;;;5.28;2.25;;;;;;;;;;6118302;23;20439;-88
2023/06/01 05:24:45;;;;;;;6.28;2.80;;;;;;;;;;6121690;23;20054;-90
2023/06/01 05:27:11;;;;;;;5.55;2.30;;;;;;;;;;6120115;23;20022;-88
2023/06/01 05:29:37;;;;;;;5.00;2.47;;;;;;;;;;6119740;23;20478;-88
2023/06/01 05:32:03;;;;;;;5.07;2.33;;;;;;;;;;6122595;23;20073;-89
2023/06/01 05:34:29;;;;;;;6.32;3.08;;;;;;;;;;6121141;23;20025;-83
2023/06/01 05:36:56;;;;;;;7.68;3.33;;;;;;;;;;6122300;23;20010;-83
2023/06/01 05:39:27;;;;;;;7.10;3.25;;;;;;;;;;6119747;23;20021;-86
2023/06/01 05:41:53;;;;;;;6.55;3.28;;;;;;;;;;6121029;23;20053;-84
2023/06/01 05:44:19;;;;;;;4.50;2.67;;;;;;;;;;6119487;23;20021;-84
2023/06/01 05:46:49;;;;;;;7.40;2.75;;;;;;;;;;6121346;23;20025;-86
2023/06/01 05:49:15;;;;;;;5.45;3.47;;;;;;;;;;6120489;23;20028;-86
2023/06/01 05:51:42;;;;;;;3.85;2.92;;;;;;;;;;6095287;23;20073;-85
2023/06/01 05:54:09;;;;;;;3.40;2.38;;;;;;;;;;6121366;23;20014;-84
2023/06/01 05:56:37;;;;;;;5.28;2.58;;;;;;;;;;6121208;23;20021;-83
2023/06/01 05:59:03;;;;;;;4.20;2.92;;;;;;;;;;6122605;23;20014;-85
2023/06/01 06:01:29;;;;;;;6.05;2.95;;;;;;;;;;6120340;23;20022;-83
2023/06/01 06:03:57;;;;;;;4.53;3.30;;;;;;;;;;6121331;23;20105;-84
2023/06/01 06:06:23;;;;;;;5.75;2.67;;;;;;;;;;6122079;23;20330;-84
2023/06/01 06:08:50;;;;;;;5.88;2.83;;;;;;;;;;6121206;23;20278;-84
2023/06/01 06:11:16;;;;;;;2.05;1.33;;;;;;;;;;6096751;23;20060;-83
2023/06/01 06:13:42;;;;;;;7.97;2.40;;;;;;;;;;6121503;23;20093;-84
2023/06/01 06:16:08;;;;;;;5.35;2.55;;;;;;;;;;6121290;23;20147;-84
2023/06/01 06:18:34;;;;;;;5.82;2.40;;;;;;;;;;6121223;23;20049;-86
2023/06/01 06:21:00;;;;;;;3.05;2.35;;;;;;;;;;6122821;23;20382;-84
2023/06/01 06:23:27;;;;;;;3.75;1.83;;;;;;;;;;6121471;23;20132;-85
2023/06/01 06:25:53;;;;;;;3.42;1.80;;;;;;;;;;6122768;23;20077;-85
2023/06/01 06:28:19;;;;;;;6.13;2.40;;;;;;;;;;6119975;23;20018;-86
2023/06/01 06:30:45;;;;;;;3.40;2.10;;;;;;;;;;6122445;23;20093;-86
2023/06/01 06:33:12;;;;;;;1.75;1.30;;;;;;;;;;6120979;23;20451;-83
2023/06/01 06:35:38;;;;;;;4.18;1.90;;;;;;;;;;6119985;23;20089;-84
2023/06/01 06:38:05;;;;;;;3.47;2.08;;;;;;;;;;6122850;23;20280;-87
2023/06/01 06:40:31;;;;;;;3.58;2.00;;;;;;;;;;6119706;23;20056;-84
2023/06/01 06:42:57;;;;;;;2.85;1.80;;;;;;;;;;6119111;23;20078;-86
2023/06/01 06:45:23;;;;;;;3.80;1.48;;;;;;;;;;6120363;23;20100;-84
2023/06/01 06:47:49;;;;;;;6.65;2.40;;;;;;;;;;6119808;23;20251;-85
2023/06/01 06:50:15;;;;;;;4.22;2.33;;;;;;;;;;6120743;23;20022;-85
2023/06/01 06:52:42;;;;;;;6.70;2.25;;;;;;;;;;6119235;23;20021;-85
2023/06/01 06:55:08;;;;;;;2.95;1.80;;;;;;;;;;6122267;23;20380;-86
2023/06/01 06:57:35;;;;;;;4.63;2.40;;;;;;;;;;6118921;23;20093;-86
2023/06/01 07:00:03;;;;;;;6.82;2.35;;;;;;;;;;6122617;23;20029;-87
2023/06/01 07:02:30;;;;;;;4.45;2.38;;;;;;;;;;6117722;23;20022;-87
2023/06/01 07:04:56;;;;;;;4.80;2.38;;;;;;;;;;6122542;23;20057;-85
2023/06/01 07:07:21;;;;;;;4.65;2.30;;;;;;;;;;6118701;23;20077;-87
2023/06/01 07:09:48;;;;;;;5.00;2.33;;;;;;;;;;6119945;23;20030;-84
2023/06/01 07:12:14;;;;;;;7.30;2.80;;;;;;;;;;6120057;23;20048;-86
2023/06/01 07:14:40;;;;;;;3.17;1.85;;;;;;;;;;6121330;23;20014;-84
2023/06/01 07:17:06;;;;;;;3.85;1.70;;;;;;;;;;6121592;23;20163;-86
2023/06/01 07:19:35;;;;;;;5.00;2.22;;;;;;;;;;6122274;23;20018;-83
2023/06/01 07:22:01;;;;;;;3.67;2.10;;;;;;;;;;6122420;23;20025;-84
2023/06/01 07:24:27;;;;;;;3.55;1.52;;;;;;;;;;6121083;23;20025;-86
2023/06/01 07:26:53;;;;;;;5.07;2.40;;;;;;;;;;6096576;23;20026;-88
2023/06/01 07:29:20;;;;;;;4.38;2.22;;;;;;;;;;6119038;23;20022;-87
2023/06/01 07:31:47;;;;;;;6.95;2.45;;;;;;;;;;6119061;23;20014;-86
2023/06/01 07:34:13;;;;;;;3.70;2.03;;;;;;;;;;6122271;23;20017;-86
2023/06/01 07:36:40;;;;;;;5.60;1.27;;;;;;;;;;6119053;23;20018;-86
2023/06/01 07:39:08;;;;;;;2.25;1.67;;;;;;;;;;6122211;23;20506;-87
2023/06/01 07:41:34;;;;;;;3.17;1.60;;;;;;;;;;6118417;23;20017;-87
2023/06/01 07:44:00;;;;;;;3.15;2.00;;;;;;;;;;6120045;23;20348;-86
2023/06/01 07:46:26;;;;;;;4.30;1.50;;;;;;;;;;6094893;23;20045;-86
2023/06/01 07:48:52;;;;;;;3.95;1.90;;;;;;;;;;6120147;23;20010;-86
2023/06/01 07:51:19;;;;;;;4.68;2.63;;;;;;;;;;6120637;23;20010;-88
2023/06/01 07:53:45;;;;;;;5.30;1.75;;;;;;;;;;6119622;23;20080;-88
2023/06/01 07:56:11;;;;;;;2.88;1.73;;;;;;;;;;6094783;23;20092;-88
2023/06/01 07:58:37;;;;;;;3.17;1.90;;;;;;;;;;6123056;23;20394;-92
2023/06/01 08:01:04;;;;;;;6.07;2.10;;;;;;;;;;6121323;23;20359;-93
2023/06/01 08:03:33;;;;;;;3.80;1.70;;;;;;;;;;6118204;23;20021;-91
2023/06/01 08:06:02;;;;;;;6.05;2.17;;;;;;;;;;6117620;23;20041;-90
2023/06/01 08:08:28;;;;;;;5.90;1.70;;;;;;;;;;6120659;23;20010;-83
2023/06/01 08:10:54;;;;;;;4.05;2.08;;;;;;;;;;6094691;23;20018;-87
2023/06/01 08:13:20;;;;;;;5.97;2.00;;;;;;;;;;6120694;23;20308;-86
2023/06/01 08:15:49;;;;;;;5.07;1.90;;;;;;;;;;6119278;23;20046;-86
2023/06/01 08:18:15;;;;;;;7.25;2.15;;;;;;;;;;6120062;23;20025;-87
2023/06/01 08:20:42;;;;;;;4.95;2.55;;;;;;;;;;6117905;23;20022;-88
2023/06/01 08:23:08;;;;;;;6.05;1.70;;;;;;;;;;6119105;23;20022;-86
2023/06/01 08:25:34;;;;;;;1.92;1.25;;;;;;;;;;6120274;23;20010;-87
2023/06/01 08:28:00;;;;;;;1.92;1.02;;;;;;;;;;6120677;23;20018;-91
2023/06/01 08:30:26;;;;;;;1.85;1.02;;;;;;;;;;6119399;23;20014;-88
2023/06/01 08:32:52;;;;;;;1.35;0.80;;;;;;;;;;6119701;23;20014;-86
2023/06/01 08:35:19;;;;;;;2.17;1.05;;;;;;;;;;6119261;23;20026;-86
2023/06/01 08:37:47;;;;;;;1.98;0.88;;;;;;;;;;6120546;23;20462;-87
2023/06/01 08:40:14;;;;;;;1.90;0.80;;;;;;;;;;6120156;23;20026;-88
2023/06/01 08:42:46;;;;;;;1.40;1.00;;;;;;;;;;6118756;23;20018;-83
2023/06/01 08:45:13;;;;;;;2.25;1.08;;;;;;;;;;6117506;23;20025;-85
2023/06/01 08:47:40;;;;;;;1.95;1.13;;;;;;;;;;6118067;23;20021;-84
2023/06/01 08:50:07;;;;;;;3.10;1.30;;;;;;;;;;6119876;23;20022;-86
2023/06/01 08:52:35;;;;;;;2.38;1.30;;;;;;;;;;6117978;23;20033;-85
2023/06/01 08:55:02;;;;;;;2.25;1.08;;;;;;;;;;6095629;23;20018;-85
2023/06/01 08:57:29;;;;;;;2.53;1.30;;;;;;;;;;6118002;23;20073;-87
2023/06/01 08:59:55;;;;;;;4.18;1.67;;;;;;;;;;6119354;23;20025;-84
2023/06/01 09:02:21;;;;;;;2.70;1.50;;;;;;;;;;6093103;23;20025;-87
2023/06/01 09:04:47;;;;;;;1.60;1.00;;;;;;;;;;6120077;23;20070;-86
2023/06/01 09:07:14;;;;;;;2.22;1.40;;;;;;;;;;6122159;23;20018;-87
2023/06/01 09:09:40;;;;;;;3.75;1.45;;;;;;;;;;6119063;23;20093;-85
2023/06/01 09:12:19;;;;;;;2.83;1.60;;;;;;;;;;6120627;23;20541;-86
2023/06/01 09:14:44;;;;;;;3.90;1.52;;;;;;;;;;6120836;23;20342;-86
2023/06/01 09:17:23;;;;;;;2.88;1.23;;;;;;;;;;6121697;23;20060;-85
2023/06/01 09:19:56;;;;;;;2.10;1.20;;;;;;;;;;6121246;23;20101;-84
2023/06/01 09:22:22;;;;;;;2.45;1.27;;;;;;;;;;6119893;23;20037;-84
2023/06/01 09:24:58;;;;;;;1.65;0.90;;;;;;;;;;6121257;23;20026;-85
2023/06/01 09:27:25;;;;;;;1.55;0.95;;;;;;;;;;6122740;23;20018;-81
2023/06/01 09:29:55;;;;;;;1.77;1.00;;;;;;;;;;6122785;23;20041;-83
2023/06/01 09:32:21;;;;;;;2.65;1.02;;;;;;;;;;6096412;23;20104;-83
2023/06/01 09:34:47;;;;;;;1.05;0.70;;;;;;;;;;6121811;23;20010;-84
2023/06/01 09:37:14;;;;;;;2.15;0.80;;;;;;;;;;6123386;23;20014;-83
2023/06/01 09:39:40;;;;;;;1.73;0.85;;;;;;;;;;6120295;23;20026;-80
2023/06/01 09:42:06;;;;;;;0.93;0.65;;;;;;;;;;6120426;23;20025;-85
2023/06/01 09:44:32;;;;;;;0.85;0.55;;;;;;;;;;6122185;23;20014;-91
2023/06/01 09:47:05;;;;;;;0.95;0.55;;;;;;;;;;6124633;23;20080;-91
2023/06/01 09:49:39;;;;;;;1.05;0.47;;;;;;;;;;6123246;23;20098;-87
2023/06/01 09:52:05;;;;;;;1.63;0.63;;;;;;;;;;6124986;23;20021;-89
2023/06/01 09:54:31;;;;;;;2.15;0.90;;;;;;;;;;6097754;23;20006;-89
2023/06/01 09:56:58;;;;;;;0.50;0.50;;;;;;;;;;6124373;23;20013;-84
2023/06/01 09:59:25;;;;;;;1.67;0.68;;;;;;;;;;6121583;23;20053;-90
2023/06/01 10:01:53;;;;;;;1.30;1.00;;;;;;;;;;6122505;23;20057;-92
2023/06/01 10:04:39;;;;;;;1.63;1.08;;;;;;;;;;6099069;23;20025;-91
2023/06/01 10:07:06;;;;;;;2.35;1.15;;;;;;;;;;6125096;23;20045;-91
2023/06/01 10:09:32;;;;;;;3.53;1.33;;;;;;;;;;6123418;23;20018;-92
2023/06/01 10:11:59;;;;;;;2.63;1.10;;;;;;;;;;6102302;23;20017;-92
2023/06/01 10:14:25;;;;;;;2.05;1.10;;;;;;;;;;6105312;23;20101;-95
2023/06/01 10:16:52;;;;;;;4.30;1.70;;;;;;;;;;6106194;23;20105;-89
2023/06/01 10:19:19;;;;;;;7.25;2.58;;;;;;;;;;6127983;23;20411;-92
2023/06/01 10:21:46;;;;;;;4.15;1.90;;;;;;;;;;6126286;23;20022;-93
2023/06/01 10:24:12;;;;;;;5.07;1.90;;;;;;;;;;6124246;23;20092;-91
2023/06/01 10:26:44;;;;;;;5.03;1.95;;;;;;;;;;6121305;23;20028;-93
2023/06/01 10:29:12;;;;;;;4.53;2.30;;;;;;;;;;6122836;23;20088;-91
2023/06/01 10:31:39;;;;;;;4.65;2.00;;;;;;;;;;6124699;23;20145;-89
2023/06/01 10:34:06;;;;;;;4.32;1.60;;;;;;;;;;6100258;23;20323;-91
2023/06/01 10:36:51;;;;;;;2.50;1.40;;;;;;;;;;6124191;23;20347;-85
2023/06/01 10:39:24;;;;;;;4.05;1.98;;;;;;;;;;6122979;23;20486;-87
2023/06/01 10:41:50;;;;;;;2.05;1.60;;;;;;;;;;6125074;23;20018;-93
2023/06/01 10:44:35;;;;;;;2.15;1.50;;;;;;;;;;6098315;23;20407;-87
2023/06/01 10:47:01;;;;;;;2.58;1.52;;;;;;;;;;6100369;23;20371;-84
2023/06/01 10:49:47;;;;;;;2.05;1.50;;;;;;;;;;6122556;23;20014;-88
2023/06/01 10:52:26;;;;;;;4.15;1.75;;;;;;;;;;6096601;23;20032;-90
2023/06/01 10:54:53;;;;;;;5.28;1.88;;;;;;;;;;6120457;23;20029;-85
2023/06/01 10:57:25;;;;;;;3.25;1.90;;;;;;;;;;6121646;23;20014;-86
2023/06/01 11:00:10;;;;;;;4.78;1.60;;;;;;;;;;6120442;23;20041;-87
2023/06/01 11:02:43;;;;;;;3.83;2.10;;;;;;;;;;6121605;23;20013;-84
2023/06/01 11:05:28;;;;;;;3.33;1.80;;;;;;;;;;6120545;23;20427;-86
2023/06/01 11:07:54;;;;;;;7.05;2.20;;;;;;;;;;6122819;23;20010;-84
2023/06/01 11:10:38;;;;;;;3.95;1.80;;;;;;;;;;6119291;23;20017;-81
2023/06/01 11:13:11;;;;;;;5.57;2.03;;;;;;;;;;6120520;23;20101;-87
2023/06/01 11:15:38;;;;;;;4.05;1.80;;;;;;;;;;6122091;23;20026;-81
2023/06/01 11:18:25;;;;;;;5.75;1.90;;;;;;;;;;6122451;23;20020;-82
2023/06/01 11:20:53;;;;;;;4.40;1.80;;;;;;;;;;6107002;23;20033;-83
2023/06/01 11:23:19;;;;;;;7.82;1.58;;;;;;;;;;6120747;23;20018;-83
2023/06/01 11:25:46;;;;;;;2.65;1.85;;;;;;;;;;6121621;23;20076;-84
2023/06/01 11:28:12;;;;;;;4.10;1.50;;;;;;;;;;6122796;23;20439;-84
2023/06/01 11:30:38;;;;;;;6.28;2.53;;;;;;;;;;6121622;23;20025;-83
2023/06/01 11:33:05;;;;;;;3.08;1.70;;;;;;;;;;6120678;23;20022;-82
2023/06/01 11:35:31;;;;;;;3.70;1.50;;;;;;;;;;6120032;23;20024;-83
2023/06/01 11:37:57;;;;;;;4.55;1.63;;;;;;;;;;6120835;23;20387;-82
2023/06/01 11:40:24;;;;;;;2.45;1.60;;;;;;;;;;6121612;23;20350;-82
2023/06/01 11:42:50;;;;;;;3.10;1.60;;;;;;;;;;6122596;23;20018;-82
2023/06/01 11:45:16;;;;;;;3.30;1.55;;;;;;;;;;6121125;23;20022;-84
2023/06/01 11:47:43;;;;;;;3.72;1.80;;;;;;;;;;6119805;23;20022;-83
2023/06/01 11:50:20;;;;;;;4.30;1.65;;;;;;;;;;6121000;23;20021;-85
2023/06/01 11:52:46;;;;;;;3.95;2.47;;;;;;;;;;6122642;23;20277;-83
2023/06/01 11:55:13;;;;;;;2.97;1.52;;;;;;;;;;6121038;23;20014;-84
2023/06/01 11:57:43;;;;;;;2.22;1.77;;;;;;;;;;6121663;23;20064;-84
2023/06/01 12:00:13;;;;;;;3.45;1.45;;;;;;;;;;6121107;23;20085;-82
2023/06/01 12:02:40;;;;;;;;;;;;;;;;;;6121428;23;20018;-82
2023/06/01 12:05:09;;;;;;;5.55;1.63;;;;;;;;;;6122326;23;19995;-86
2023/06/01 12:07:46;;;;;;;6.00;1.77;;;;;;;;;;6119941;23;20399;-81
2023/06/01 12:10:16;;;;;;;5.10;1.45;;;;;;;;;;6122420;23;20089;-82
2023/06/01 12:12:45;;;;;;;4.00;1.50;;;;;;;;;;6095706;23;20010;-82
2023/06/01 12:15:12;;;;;;;4.25;1.83;;;;;;;;;;6121361;23;20014;-81
2023/06/01 12:17:49;;;;;;;3.92;2.10;;;;;;;;;;6118754;23;20018;-82
2023/06/01 12:20:26;;;;;;;3.33;1.63;;;;;;;;;;6120064;23;20060;-81
2023/06/01 12:22:55;;;;;;;2.60;1.70;;;;;;;;;;6121438;23;20406;-83
2023/06/01 12:25:21;;;;;;;6.95;2.00;;;;;;;;;;6119757;23;20092;-83
2023/06/01 12:28:04;;;;;;;3.40;1.90;;;;;;;;;;6120084;23;20030;-82
2023/06/01 12:30:30;;;;;;;;;;;;;;;;;;6120671;23;20029;-82
2023/06/01 12:32:56;;;;;;;3.38;1.50;;;;;;;;;;6119892;23;19936;-84
2023/06/01 12:35:23;;;;;;;4.95;1.80;;;;;;;;;;6123021;23;20026;-82
2023/06/01 12:38:06;;;;;;;4.00;1.50;;;;;;;;;;6122167;23;20014;-91
2023/06/01 12:40:33;;;;;;;3.03;1.70;;;;;;;;;;6118992;23;20026;-83
2023/06/01 12:42:59;;;;;;;4.53;2.08;;;;;;;;;;6124062;23;20013;-83
2023/06/01 12:45:25;;;;;;;3.00;2.00;;;;;;;;;;6120241;23;20021;-83
2023/06/01 12:47:51;;;;;;;5.75;2.30;;;;;;;;;;6121798;23;20470;-89
2023/06/01 12:50:17;;;;;;;2.88;1.80;;;;;;;;;;6123367;23;20323;-83
2023/06/01 12:52:43;;;;;;;2.30;1.50;;;;;;;;;;6123346;23;20025;-85
2023/06/01 12:55:09;;;;;;;3.88;2.00;;;;;;;;;;6121934;23;20089;-83
2023/06/01 12:57:37;;;;;;;4.75;1.77;;;;;;;;;;6122446;23;20052;-82
2023/06/01 13:00:05;;;;;;;6.75;2.70;;;;;;;;;;6121449;23;20017;-87
2023/06/01 13:02:31;;;;;;;5.60;2.10;;;;;;;;;;6122348;23;20025;-82
2023/06/01 13:04:57;;;;;;;4.03;2.10;;;;;;;;;;6123798;23;20093;-84
2023/06/01 13:07:24;;;;;;;1.67;1.45;;;;;;;;;;6123020;23;20018;-84
2023/06/01 13:09:50;;;;;;;2.83;1.45;;;;;;;;;;6123429;23;20018;-85
2023/06/01 13:12:16;;;;;;;4.80;1.63;;;;;;;;;;6124242;23;20021;-84
2023/06/01 13:14:42;;;;;;;4.72;1.80;;;;;;;;;;6120998;23;20055;-86
2023/06/01 13:17:08;;;;;;;3.85;1.80;;;;;;;;;;6122662;23;20014;-86
2023/06/01 13:19:34;;;;;;;7.95;2.47;;;;;;;;;;6120912;23;20029;-86
2023/06/01 13:22:00;;;;;;;5.05;2.08;;;;;;;;;;6122166;23;20022;-86
2023/06/01 13:24:27;;;;;;;2.92;1.50;;;;;;;;;;6120436;23;20017;-84
2023/06/01 13:26:53;;;;;;;5.53;1.73;;;;;;;;;;6121725;23;20021;-82
2023/06/01 13:29:19;;;;;;;4.05;1.80;;;;;;;;;;6122098;23;20018;-85
2023/06/01 13:31:45;;;;;;;6.03;2.65;;;;;;;;;;6123778;23;20021;-85
2023/06/01 13:34:11;;;;;;;2.95;2.20;;;;;;;;;;6123918;23;20094;-85
2023/06/01 13:36:37;;;;;;;4.55;2.03;;;;;;;;;;6122417;23;20024;-84
2023/06/01 13:39:04;;;;;;;4.57;1.85;;;;;;;;;;6123731;23;20021;-84
2023/06/01 13:41:30;;;;;;;3.53;1.77;;;;;;;;;;6121866;23;20336;-85
2023/06/01 13:43:56;;;;;;;3.85;1.60;;;;;;;;;;6121931;23;20026;-90
2023/06/01 13:46:22;;;;;;;2.28;1.50;;;;;;;;;;6126763;23;20022;-90
2023/06/01 13:48:48;;;;;;;3.80;1.52;;;;;;;;;;6102567;23;20014;-89
2023/06/01 13:51:14;;;;;;;2.78;1.98;;;;;;;;;;6102945;23;20010;-94
2023/06/01 13:53:40;;;;;;;2.85;1.85;;;;;;;;;;6098630;23;20014;-88
2023/06/01 13:56:06;;;;;;;5.55;2.20;;;;;;;;;;6123464;23;20021;-85
2023/06/01 13:58:34;;;;;;;6.40;2.20;;;;;;;;;;6122111;23;20053;-85
2023/06/01 14:01:00;;;;;;;3.95;2.10;;;;;;;;;;6124568;23;20022;-89
2023/06/01 14:03:26;;;;;;;3.00;1.98;;;;;;;;;;6121916;23;20045;-85
2023/06/01 14:05:53;;;;;;;3.03;1.88;;;;;;;;;;6122911;23;20440;-87
2023/06/01 14:08:19;;;;;;;4.97;2.00;;;;;;;;;;6120099;23;20022;-86
2023/06/01 14:10:45;;;;;;;2.50;1.70;;;;;;;;;;6096227;23;20022;-91
2023/06/01 14:13:11;;;;;;;3.00;1.80;;;;;;;;;;6096847;23;20341;-84
2023/06/01 14:15:37;;;;;;;4.55;1.90;;;;;;;;;;6121982;23;20073;-84
2023/06/01 14:18:04;;;;;;;3.65;2.22;;;;;;;;;;6121160;23;20026;-85
2023/06/01 14:20:30;;;;;;;6.10;2.10;;;;;;;;;;6122165;23;20025;-84
2023/06/01 14:22:56;;;;;;;3.38;2.00;;;;;;;;;;6122292;23;20368;-89
2023/06/01 14:25:22;;;;;;;2.25;1.65;;;;;;;;;;6120603;23;20026;-84
2023/06/01 14:27:49;;;;;;;4.80;2.00;;;;;;;;;;6121205;23;20022;-84
2023/06/01 14:30:15;;;;;;;3.38;1.90;;;;;;;;;;6122905;23;20119;-85
2023/06/01 14:32:41;;;;;;;4.38;1.90;;;;;;;;;;6121676;23;20014;-85
2023/06/01 14:35:07;;;;;;;7.55;2.10;;;;;;;;;;6122888;23;20025;-86
2023/06/01 14:37:33;;;;;;;2.30;2.00;;;;;;;;;;6120442;23;20364;-87
2023/06/01 14:39:59;;;;;;;3.15;1.85;;;;;;;;;;6123411;23;20018;-86
2023/06/01 14:42:25;;;;;;;2.15;1.50;;;;;;;;;;6121273;23;20045;-84
2023/06/01 14:44:51;;;;;;;3.03;1.52;;;;;;;;;;6121959;23;20072;-84
2023/06/01 14:47:17;;;;;;;6.40;1.77;;;;;;;;;;6121835;23;20044;-85